createdAt,value
2019-01-05T00:03:13.886Z,98754.52
2019-01-05T00:08:41.197Z,98748.53
2019-01-05T00:13:55.182Z,98744.70
2019-01-05T00:19:10.969Z,98751.09
2019-01-05T00:24:41.230Z,98742.53
2019-01-05T00:30:17.004Z,98732.62
2019-01-05T00:35:52.899Z,98717.06
2019-01-05T00:41:11.532Z,98701.22
2019-01-05T00:46:29.860Z,98703.38
2019-01-05T00:51:46.222Z,98701.67
2019-01-05T00:57:02.314Z,98694.25
2019-01-05T01:02:16.488Z,98689.91
2019-01-05T01:07:31.511Z,98674.87
2019-01-05T01:13:01.649Z,98687.47
2019-01-05T01:18:15.333Z,98690.84
2019-01-05T01:23:30.102Z,98681.35
2019-01-05T01:28:59.346Z,98680.91
2019-01-05T01:34:11.163Z,98677.45
2019-01-05T01:39:31.193Z,98674.91
2019-01-05T01:45:04.089Z,98670.17
2019-01-05T01:50:18.951Z,98675.75
2019-01-05T01:55:36.614Z,98650.27
2019-01-05T02:00:52.362Z,98658.52
2019-01-05T02:06:10.579Z,98659.44
2019-01-05T02:11:26.394Z,98658.56
2019-01-05T02:17:07.200Z,98652.13
2019-01-05T02:23:21.519Z,98647.28
2019-01-05T02:29:34.966Z,98633.48
2019-01-05T02:36:12.604Z,98624.91
2019-01-05T02:42:41.966Z,98622.23
2019-01-05T02:49:04.425Z,98617.18
2019-01-05T02:55:42.209Z,98614.41
2019-01-05T03:01:54.662Z,98602.01
2019-01-05T03:08:17.340Z,98602.98
2019-01-05T03:14:38.129Z,98597.16
2019-01-05T03:21:01.087Z,98592.92
2019-01-05T03:27:03.606Z,98589.14
2019-01-05T03:33:02.665Z,98578.37
2019-01-05T03:39:14.787Z,98578.38
2019-01-05T03:45:21.198Z,98572.40
2019-01-05T03:51:58.780Z,98574.55
2019-01-05T03:58:15.104Z,98562.46
2019-01-05T04:04:38.276Z,98555.27
2019-01-05T04:10:39.832Z,98551.72
2019-01-05T04:16:51.916Z,98546.99
2019-01-05T04:23:03.239Z,98535.42
2019-01-05T04:29:09.280Z,98525.48
2019-01-05T04:35:22.450Z,98523.28
2019-01-05T04:41:41.083Z,98507.86
2019-01-05T04:48:16.324Z,98500.22
2019-01-05T04:54:42.369Z,98492.03
2019-01-05T05:00:46.228Z,98491.19
2019-01-05T05:07:20.354Z,98477.47
2019-01-05T05:13:32.115Z,98457.72
2019-01-05T05:19:45.083Z,98450.61
2019-01-05T05:25:56.049Z,98416.69
2019-01-05T05:32:39.944Z,98404.95
2019-01-05T05:44:08.671Z,98411.84
2019-01-05T05:49:49.255Z,98433.59
2019-01-05T05:56:14.426Z,98456.27
2019-01-05T06:02:08.590Z,98464.05
2019-01-05T06:08:34.412Z,98453.95
2019-01-05T06:15:12.652Z,98455.72
2019-01-05T06:21:54.403Z,98469.07
2019-01-05T06:28:23.952Z,98474.50
2019-01-05T06:34:30.933Z,98467.28
2019-01-05T06:41:05.224Z,98478.11
2019-01-05T06:47:48.161Z,98479.38
2019-01-05T06:54:20.082Z,98488.89
2019-01-05T07:00:49.710Z,98501.92
2019-01-05T07:07:20.983Z,98504.95
2019-01-05T07:13:14.510Z,98501.11
2019-01-05T07:19:34.274Z,98499.66
2019-01-05T07:25:59.302Z,98491.58
2019-01-05T07:32:15.751Z,98472.91
2019-01-05T07:38:56.561Z,98467.42
2019-01-05T07:45:31.243Z,98455.45
2019-01-05T07:51:36.811Z,98466.77
2019-01-05T07:57:48.597Z,98477.91
2019-01-05T08:04:00.642Z,98475.67
2019-01-05T08:10:16.630Z,98454.95
2019-01-05T08:16:12.298Z,98466.23
2019-01-05T08:22:35.431Z,98493.89
2019-01-05T08:28:37.035Z,98514.42
2019-01-05T08:34:47.142Z,98521.36
2019-01-05T08:40:48.175Z,98512.73
2019-01-05T08:47:08.899Z,98505.41
2019-01-05T08:53:12.303Z,98502.73
2019-01-05T08:59:38.370Z,98480.45
2019-01-05T09:05:50.803Z,98462.80
2019-01-05T09:12:00.475Z,98460.68
2019-01-05T09:18:22.324Z,98454.13
2019-01-05T09:24:37.378Z,98479.17
2019-01-05T09:30:49.458Z,98502.41
2019-01-05T09:37:07.634Z,98510.08
2019-01-05T09:43:18.631Z,98516.90
2019-01-05T09:49:45.788Z,98513.81
2019-01-05T09:55:59.395Z,98513.33
2019-01-05T10:02:16.518Z,98496.83
2019-01-05T10:08:52.844Z,98499.54
2019-01-05T10:15:26.362Z,98497.74
2019-01-05T10:22:13.410Z,98489.20
2019-01-05T10:28:32.993Z,98465.30
2019-01-05T10:35:15.734Z,98454.30
2019-01-05T10:41:43.068Z,98441.24
2019-01-05T10:47:46.237Z,98417.41
2019-01-05T10:53:53.167Z,98421.88
2019-01-05T10:59:57.618Z,98406.59
2019-01-05T11:06:35.913Z,98391.34
2019-01-05T11:13:07.782Z,98385.37
2019-01-05T11:26:15.167Z,98397.38
2019-01-05T11:33:15.184Z,98393.50
2019-01-05T11:39:13.821Z,98391.34
2019-01-05T11:45:16.903Z,98391.53
2019-01-05T11:51:38.414Z,98372.44
2019-01-05T12:04:39.536Z,98344.89
2019-01-05T12:17:12.282Z,98326.69
2019-01-05T12:23:34.697Z,98322.59
2019-01-05T12:29:54.961Z,98332.16
2019-01-05T12:36:30.585Z,98339.37
2019-01-05T13:02:32.535Z,98323.13
2019-01-05T13:08:15.066Z,98336.36
2019-01-05T13:14:47.755Z,98344.13
2019-01-05T13:21:07.440Z,98342.72
2019-01-05T13:27:19.196Z,98343.12
2019-01-05T13:35:13.736Z,98346.66
2019-01-05T13:40:12.657Z,98353.45
2019-01-05T13:46:31.391Z,98337.11
2019-01-05T13:52:39.757Z,98327.13
2019-01-05T13:57:59.341Z,98327.67
2019-01-05T14:03:42.494Z,98319.83
2019-01-05T14:09:01.027Z,98328.11
2019-01-05T14:14:19.897Z,98327.16
2019-01-05T14:19:40.754Z,98310.69
2019-01-05T14:25:10.740Z,98311.64
2019-01-05T14:30:26.390Z,98322.85
2019-01-05T14:35:56.676Z,98324.95
2019-01-05T14:40:52.425Z,98323.60
2019-01-05T14:46:07.114Z,98326.34
2019-01-05T14:51:21.723Z,98316.39
2019-01-05T14:56:36.361Z,98338.38
2019-01-05T15:01:49.889Z,98324.55
2019-01-05T15:07:02.295Z,98331.51
2019-01-05T15:12:19.187Z,98343.06
2019-01-05T15:17:38.384Z,98344.83
2019-01-05T15:22:50.505Z,98344.02
2019-01-05T15:28:20.335Z,98344.80
2019-01-05T15:33:33.906Z,98335.32
2019-01-05T15:38:45.300Z,98326.69
2019-01-05T15:44:03.708Z,98315.07
2019-01-05T15:49:22.496Z,98323.77
2019-01-05T15:54:38.476Z,98333.52
2019-01-05T16:00:03.109Z,98324.14
2019-01-05T16:05:38.960Z,98321.28
2019-01-05T16:10:53.552Z,98315.58
2019-01-05T16:16:26.835Z,98293.94
2019-01-05T16:21:53.814Z,98303.31
2019-01-05T16:27:12.236Z,98303.42
2019-01-05T16:32:37.169Z,98304.17
2019-01-05T16:37:51.520Z,98311.13
2019-01-05T16:43:18.589Z,98323.87
2019-01-05T16:48:32.168Z,98340.33
2019-01-05T16:54:02.236Z,98350.28
2019-01-05T16:59:17.378Z,98356.80
2019-01-05T17:04:31.902Z,98358.97
2019-01-05T17:10:04.981Z,98373.20
2019-01-05T17:15:22.639Z,98373.55
2019-01-05T17:20:28.231Z,98371.03
2019-01-05T17:25:52.119Z,98368.26
2019-01-05T17:31:05.760Z,98369.17
2019-01-05T17:36:18.894Z,98369.59
2019-01-05T17:41:33.981Z,98367.28
2019-01-05T17:46:47.561Z,98365.70
2019-01-05T17:52:05.621Z,98358.30
2019-01-05T17:57:17.688Z,98369.36
2019-01-05T18:02:35.255Z,98369.42
2019-01-05T18:07:59.331Z,98369.45
2019-01-05T18:13:17.301Z,98375.88
2019-01-05T18:18:32.151Z,98378.94
2019-01-05T18:23:45.229Z,98384.95
2019-01-05T18:29:00.031Z,98384.23
2019-01-05T18:34:24.012Z,98387.50
2019-01-05T18:39:37.521Z,98388.89
2019-01-05T18:44:50.863Z,98388.83
2019-01-05T18:50:14.887Z,98387.95
2019-01-05T18:55:35.893Z,98390.91
2019-01-05T19:00:46.504Z,98380.98
2019-01-05T19:06:01.099Z,98380.16
2019-01-05T19:11:10.381Z,98368.88
2019-01-05T19:16:32.408Z,98364.98
2019-01-05T19:22:15.165Z,98367.52
2019-01-05T19:27:42.854Z,98369.73
2019-01-05T19:33:17.530Z,98378.78
2019-01-05T19:38:33.680Z,98375.72
2019-01-05T19:43:46.356Z,98382.62
2019-01-05T19:49:03.707Z,98374.36
2019-01-05T19:54:26.698Z,98372.19
2019-01-05T19:59:54.946Z,98373.98
2019-01-05T20:05:11.547Z,98361.51
2019-01-05T20:10:27.787Z,98368.75
2019-01-05T20:16:04.615Z,98363.14
2019-01-05T20:21:16.465Z,98364.98
2019-01-05T20:26:46.911Z,98361.95
2019-01-05T20:32:13.813Z,98369.77
2019-01-05T20:37:46.687Z,98368.75
2019-01-05T20:43:04.682Z,98367.90
2019-01-05T20:48:28.819Z,98373.88
2019-01-05T20:53:49.415Z,98365.69
2019-01-05T20:59:06.505Z,98382.42
2019-01-05T21:04:52.256Z,98394.05
2019-01-05T21:10:09.735Z,98392.89
2019-01-05T21:15:37.310Z,98395.88
2019-01-05T21:20:51.069Z,98390.72
2019-01-05T21:26:06.487Z,98390.17
2019-01-05T21:31:22.837Z,98397.52
2019-01-05T21:36:37.424Z,98395.44
2019-01-05T21:41:52.230Z,98383.78
2019-01-05T21:47:19.533Z,98369.60
2019-01-05T21:52:34.298Z,98366.09
2019-01-05T21:57:50.775Z,98373.27
2019-01-05T22:03:08.433Z,98365.28
2019-01-05T22:08:19.205Z,98362.22
2019-01-05T22:13:33.072Z,98357.05
2019-01-05T22:18:47.809Z,98358.75
2019-01-05T22:24:11.748Z,98356.20
2019-01-05T22:29:35.539Z,98356.06
2019-01-05T22:34:59.725Z,98365.38
2019-01-05T22:40:22.280Z,98369.91
2019-01-05T22:45:38.789Z,98368.33
2019-01-05T22:50:52.248Z,98368.23
2019-01-05T22:56:15.986Z,98353.94
2019-01-05T23:01:42.858Z,98360.91
2019-01-05T23:07:06.831Z,98355.81
2019-01-05T23:12:19.502Z,98371.52
2019-01-05T23:17:33.135Z,98372.47
2019-01-05T23:22:56.902Z,98370.70
2019-01-05T23:28:20.701Z,98373.84
2019-01-05T23:33:38.593Z,98368.48
2019-01-05T23:38:52.364Z,98365.34
2019-01-05T23:44:19.326Z,98370.40
2019-01-05T23:49:43.251Z,98366.08
2019-01-05T23:55:00.972Z,98362.39
